createdAt,value
2023-04-22T00:02:02.628Z,17.70
2023-04-22T00:04:29.351Z,17.20
2023-04-22T00:06:56.118Z,17.50
2023-04-22T00:09:23.380Z,17.20
2023-04-22T00:11:50.490Z,16.70
2023-04-22T00:14:17.104Z,19.50
2023-04-22T00:16:43.935Z,19.80
2023-04-22T00:19:10.712Z,19.20
2023-04-22T00:21:37.269Z,20.10
2023-04-22T00:24:03.954Z,19.90
2023-04-22T00:26:30.583Z,21.10
2023-04-22T00:28:57.360Z,20.70
2023-04-22T00:31:24.681Z,21.50
2023-04-22T00:33:51.331Z,20.40
2023-04-22T00:36:18.028Z,21.10
2023-04-22T00:38:48.827Z,21.50
2023-04-22T00:41:16.315Z,20.60
2023-04-22T00:43:43.268Z,19.70
2023-04-22T00:46:09.914Z,19.80
2023-04-22T00:48:37.496Z,19.40
2023-04-22T00:51:05.208Z,20.40
2023-04-22T00:53:31.799Z,20.80
2023-04-22T00:55:58.881Z,20.90
2023-04-22T00:58:28.653Z,21.50
2023-04-22T01:00:55.543Z,21.10
2023-04-22T01:03:23.417Z,21.40
2023-04-22T01:05:50.456Z,21.70
2023-04-22T01:08:17.213Z,22.10
2023-04-22T01:10:43.920Z,22.40
2023-04-22T01:13:10.517Z,21.20
2023-04-22T01:15:37.406Z,21.00
2023-04-22T01:18:04.659Z,22.10
2023-04-22T01:20:31.267Z,21.70
2023-04-22T01:23:01.718Z,22.10
2023-04-22T01:25:28.973Z,22.40
2023-04-22T01:27:56.408Z,23.30
2023-04-22T01:30:23.077Z,22.90
2023-04-22T01:32:49.914Z,23.10
2023-04-22T01:35:18.915Z,24.00
2023-04-22T01:37:45.551Z,23.20
2023-04-22T01:40:15.888Z,22.80
2023-04-22T01:42:42.442Z,22.60
2023-04-22T01:45:09.680Z,23.00
2023-04-22T01:47:36.723Z,23.00
2023-04-22T01:50:03.741Z,23.10
2023-04-22T01:52:30.558Z,23.40
2023-04-22T01:54:57.638Z,23.10
2023-04-22T01:57:24.229Z,23.40
2023-04-22T01:59:50.923Z,22.50
2023-04-22T02:02:17.496Z,24.10
2023-04-22T02:04:44.269Z,23.20
2023-04-22T02:07:11.037Z,23.50
2023-04-22T02:09:38.186Z,23.50
2023-04-22T02:12:05.157Z,23.00
2023-04-22T02:14:31.667Z,22.60
2023-04-22T02:17:02.712Z,23.10
2023-04-22T02:19:29.268Z,23.90
2023-04-22T02:21:55.905Z,25.00
2023-04-22T02:24:22.432Z,24.70
2023-04-22T02:26:49.111Z,23.90
2023-04-22T02:29:16.617Z,23.60
2023-04-22T02:31:43.388Z,23.90
2023-04-22T02:34:10.233Z,24.60
2023-04-22T02:36:36.863Z,23.70
2023-04-22T02:39:05.488Z,22.10
2023-04-22T02:51:24.497Z,22.50
2023-04-22T02:53:53.066Z,23.10
2023-04-22T02:56:21.447Z,23.30
2023-04-22T02:58:49.380Z,24.00
2023-04-22T03:01:17.464Z,23.20
2023-04-22T03:03:45.934Z,24.00
2023-04-22T03:06:20.852Z,23.20
2023-04-22T03:08:49.220Z,23.50
2023-04-22T03:11:17.206Z,23.20
2023-04-22T03:13:45.300Z,23.70
2023-04-22T03:16:13.989Z,23.60
2023-04-22T03:18:42.329Z,23.40
2023-04-22T03:21:11.507Z,23.50
2023-04-22T03:23:41.714Z,22.10
2023-04-22T03:26:10.593Z,22.00
2023-04-22T03:28:39.672Z,21.60
2023-04-22T03:31:07.765Z,21.40
2023-04-22T03:33:36.298Z,22.60
2023-04-22T03:36:09.826Z,23.10
2023-04-22T03:38:37.858Z,22.30
2023-04-22T03:41:06.328Z,22.90
2023-04-22T03:43:40.671Z,23.80
2023-04-22T03:46:10.919Z,22.70
2023-04-22T03:48:45.928Z,23.40
2023-04-22T03:51:22.472Z,24.40
2023-04-22T03:53:51.186Z,23.50
2023-04-22T03:56:21.452Z,23.40
2023-04-22T03:58:51.032Z,23.20
2023-04-22T04:01:19.317Z,23.80
2023-04-22T04:03:50.394Z,23.30
2023-04-22T04:06:19.270Z,24.40
2023-04-22T04:08:47.279Z,22.20
2023-04-22T04:11:15.615Z,22.60
2023-04-22T04:13:43.740Z,22.80
2023-04-22T04:16:41.056Z,22.10
2023-04-22T04:19:13.669Z,20.70
2023-04-22T04:21:42.406Z,20.90
2023-04-22T04:24:10.755Z,19.30
2023-04-22T04:26:43.252Z,20.50
2023-04-22T04:29:15.927Z,18.50
2023-04-22T04:31:53.303Z,17.40
2023-04-22T04:34:22.941Z,18.70
2023-04-22T04:36:51.117Z,18.30
2023-04-22T04:39:29.226Z,17.30
2023-04-22T04:42:00.495Z,17.50
2023-04-22T04:44:31.919Z,17.70
2023-04-22T04:47:00.317Z,16.30
2023-04-22T04:49:30.708Z,16.50
2023-04-22T04:51:59.759Z,17.00
2023-04-22T04:54:28.094Z,17.90
2023-04-22T04:56:57.574Z,16.70
2023-04-22T04:59:26.144Z,16.70
2023-04-22T05:01:54.794Z,17.60
2023-04-22T05:04:23.410Z,18.10
2023-04-22T05:06:51.904Z,17.50
2023-04-22T05:09:20.662Z,17.00
2023-04-22T05:11:49.553Z,17.60
2023-04-22T05:14:20.181Z,17.10
2023-04-22T05:16:48.639Z,18.50
2023-04-22T05:19:16.636Z,17.00
2023-04-22T05:21:45.089Z,18.60
2023-04-22T05:24:13.285Z,17.90
2023-04-22T05:26:41.848Z,19.00
2023-04-22T05:29:15.060Z,15.00
2023-04-22T05:31:43.151Z,14.00
2023-04-22T05:34:12.418Z,14.80
2023-04-22T05:36:40.677Z,13.80
2023-04-22T05:39:08.844Z,13.00
2023-04-22T05:41:37.064Z,12.10
2023-04-22T05:44:06.424Z,11.70
2023-04-22T05:46:34.580Z,12.20
2023-04-22T05:49:02.877Z,12.00
2023-04-22T05:51:50.487Z,13.60
2023-04-22T05:54:20.458Z,12.80
2023-04-22T05:56:48.512Z,11.80
2023-04-22T05:59:19.516Z,11.10
2023-04-22T06:01:48.627Z,10.60
2023-04-22T06:04:20.843Z,11.20
2023-04-22T06:06:50.039Z,10.00
2023-04-22T06:09:18.024Z,10.50
2023-04-22T06:11:46.301Z,10.70
2023-04-22T06:14:14.497Z,11.60
2023-04-22T06:16:43.345Z,10.20
2023-04-22T06:19:11.473Z,10.70
2023-04-22T06:21:40.701Z,9.70
2023-04-22T06:24:10.311Z,9.00
2023-04-22T06:26:38.528Z,9.50
2023-04-22T06:29:06.657Z,8.50
2023-04-22T06:31:35.136Z,8.00
2023-04-22T06:34:03.428Z,8.20
2023-04-22T06:36:37.217Z,8.10
2023-04-22T06:41:45.552Z,8.40
2023-04-22T06:44:27.285Z,7.20
2023-04-22T06:47:08.632Z,7.20
2023-04-22T06:49:46.766Z,7.90
2023-04-22T06:52:37.513Z,8.10
2023-04-22T06:55:05.999Z,8.10
2023-04-22T06:57:33.965Z,8.90
2023-04-22T07:00:04.541Z,9.90
2023-04-22T07:02:33.372Z,9.40
2023-04-22T07:05:01.603Z,9.30
2023-04-22T07:07:30.514Z,8.50
2023-04-22T07:09:58.751Z,8.70
2023-04-22T07:12:28.870Z,8.80
2023-04-22T07:14:57.139Z,8.70
2023-04-22T07:17:25.208Z,9.20
2023-04-22T07:19:53.769Z,8.70
2023-04-22T07:22:21.916Z,9.10
2023-04-22T07:24:51.453Z,9.80
2023-04-22T07:27:19.797Z,9.30
2023-04-22T07:29:47.784Z,11.00
2023-04-22T07:32:15.774Z,9.40
2023-04-22T07:34:43.842Z,10.50
2023-04-22T07:37:11.775Z,10.60
2023-04-22T07:39:40.512Z,11.10
2023-04-22T07:42:08.732Z,11.20
2023-04-22T07:44:38.243Z,12.50
2023-04-22T07:47:10.774Z,12.40
2023-04-22T07:49:38.917Z,11.50
2023-04-22T07:52:07.066Z,9.30
2023-04-22T07:54:35.055Z,8.10
2023-04-22T07:57:03.025Z,13.10
2023-04-22T07:59:30.925Z,9.10
2023-04-22T08:01:59.130Z,8.20
2023-04-22T08:04:27.234Z,8.60
2023-04-22T08:06:56.261Z,8.50
2023-04-22T08:09:24.175Z,8.70
2023-04-22T08:11:52.656Z,7.60
2023-04-22T08:14:20.671Z,7.80
2023-04-22T08:16:48.654Z,8.60
2023-04-22T08:19:16.570Z,8.70
2023-04-22T08:21:44.822Z,9.70
2023-04-22T08:24:13.125Z,9.80
2023-04-22T08:26:41.206Z,8.80
2023-04-22T08:29:09.302Z,8.80
2023-04-22T08:31:37.343Z,7.30
2023-04-22T08:34:05.273Z,7.70
2023-04-22T08:36:33.298Z,6.90
2023-04-22T08:39:01.284Z,7.60
2023-04-22T08:41:30.709Z,6.80
2023-04-22T08:43:58.744Z,4.60
2023-04-22T08:46:28.766Z,4.90
2023-04-22T08:49:03.233Z,5.30
2023-04-22T08:51:33.723Z,4.90
2023-04-22T08:54:01.778Z,5.00
2023-04-22T08:56:31.541Z,4.90
2023-04-22T08:59:00.127Z,5.30
2023-04-22T09:01:30.230Z,4.30
2023-04-22T09:04:01.731Z,4.90
2023-04-22T09:06:32.722Z,4.50
2023-04-22T09:09:01.392Z,4.90
2023-04-22T09:11:30.641Z,5.50
2023-04-22T09:13:58.572Z,9.40
2023-04-22T09:16:26.456Z,5.50
2023-04-22T09:18:54.422Z,4.30
2023-04-22T09:21:26.143Z,4.40
2023-04-22T09:23:55.599Z,4.30
2023-04-22T09:26:26.172Z,5.20
2023-04-22T09:28:58.377Z,4.50
2023-04-22T09:31:28.136Z,5.00
2023-04-22T09:33:58.774Z,4.80
2023-04-22T09:36:28.382Z,5.70
2023-04-22T09:38:59.618Z,4.60
2023-04-22T09:41:31.885Z,4.30
2023-04-22T09:44:01.760Z,4.20
2023-04-22T09:46:31.646Z,4.40
2023-04-22T09:49:00.121Z,4.80
2023-04-22T09:51:29.430Z,3.90
2023-04-22T09:54:04.290Z,4.40
2023-04-22T09:56:50.041Z,4.30
2023-04-22T09:59:23.401Z,4.10
2023-04-22T10:01:54.938Z,4.20
2023-04-22T10:04:25.649Z,4.10
2023-04-22T10:06:54.484Z,4.30
2023-04-22T10:09:24.498Z,4.60
2023-04-22T10:11:54.164Z,4.10
2023-04-22T10:14:22.544Z,4.70
2023-04-22T10:17:01.181Z,4.50
2023-04-22T10:19:29.871Z,4.60
2023-04-22T10:22:02.543Z,4.90
2023-04-22T10:24:36.151Z,4.70
2023-04-22T10:27:06.810Z,4.70
2023-04-22T10:29:40.261Z,4.60
2023-04-22T10:32:17.562Z,4.80
2023-04-22T10:34:49.673Z,4.40
2023-04-22T10:37:21.783Z,5.20
2023-04-22T10:40:11.364Z,4.60
2023-04-22T10:42:41.705Z,4.80
2023-04-22T10:45:14.407Z,5.00
2023-04-22T10:47:43.258Z,5.80
2023-04-22T10:50:17.437Z,5.30
2023-04-22T10:52:55.081Z,5.30
2023-04-22T10:55:24.012Z,4.80
2023-04-22T10:57:53.581Z,5.30
2023-04-22T11:00:41.876Z,4.70
2023-04-22T11:03:16.620Z,5.30
2023-04-22T11:05:45.277Z,5.10
2023-04-22T11:08:23.985Z,5.70
2023-04-22T11:10:52.122Z,5.20
2023-04-22T11:13:22.048Z,5.40
2023-04-22T11:15:54.380Z,5.10
2023-04-22T11:18:27.440Z,4.80
2023-04-22T11:20:56.592Z,4.90
2023-04-22T11:23:27.762Z,5.10
2023-04-22T11:26:01.360Z,4.70
2023-04-22T11:28:30.183Z,4.70
2023-04-22T11:31:06.846Z,4.80
2023-04-22T11:33:35.011Z,4.80
2023-04-22T11:36:03.127Z,4.00
2023-04-22T11:38:31.559Z,6.20
2023-04-22T11:40:59.674Z,5.40
2023-04-22T11:43:27.639Z,4.60
2023-04-22T11:45:57.175Z,4.60
2023-04-22T11:48:25.383Z,4.80
2023-04-22T11:51:09.725Z,4.40
2023-04-22T11:53:39.565Z,4.70
2023-04-22T11:56:07.648Z,4.70
2023-04-22T11:58:39.840Z,4.40
2023-04-22T12:01:13.096Z,4.40
2023-04-22T12:03:41.286Z,4.50
2023-04-22T12:06:09.447Z,4.40
2023-04-22T12:08:44.422Z,4.10
2023-04-22T12:11:12.861Z,4.00
2023-04-22T12:13:45.606Z,4.50
2023-04-22T12:16:17.464Z,4.40
2023-04-22T12:18:48.183Z,4.70
2023-04-22T12:21:19.834Z,4.60
2023-04-22T12:23:50.734Z,4.50
2023-04-22T12:26:19.952Z,4.60
2023-04-22T12:28:48.405Z,4.50
2023-04-22T12:31:17.207Z,4.40
2023-04-22T12:33:46.765Z,3.70
2023-04-22T12:36:15.446Z,3.30
2023-04-22T12:38:43.561Z,4.00
2023-04-22T12:41:12.067Z,3.50
2023-04-22T12:43:40.085Z,3.90
2023-04-22T12:46:09.465Z,4.20
2023-04-22T12:48:38.006Z,3.80
2023-04-22T12:51:07.067Z,3.80
2023-04-22T12:53:35.512Z,3.70
2023-04-22T12:56:03.569Z,4.10
2023-04-22T12:58:31.552Z,4.10
2023-04-22T13:00:59.426Z,5.80
2023-04-22T13:03:27.734Z,3.70
2023-04-22T13:05:55.800Z,4.00
2023-04-22T13:08:23.744Z,3.60
2023-04-22T13:10:51.990Z,3.90
2023-04-22T13:13:19.986Z,3.60
2023-04-22T13:15:53.567Z,3.80
2023-04-22T13:18:23.528Z,3.80
2023-04-22T13:20:51.717Z,4.30
2023-04-22T13:23:21.756Z,3.70
2023-04-22T13:25:50.512Z,3.90
2023-04-22T13:28:18.731Z,3.50
2023-04-22T13:30:46.723Z,4.30
2023-04-22T13:33:14.678Z,3.50
2023-04-22T13:35:43.030Z,3.30
2023-04-22T13:38:10.989Z,4.10
2023-04-22T13:40:39.052Z,4.10
2023-04-22T13:43:08.871Z,4.10
2023-04-22T13:45:37.105Z,3.80
2023-04-22T13:48:05.344Z,4.30
2023-04-22T13:50:34.407Z,5.90
2023-04-22T13:53:04.028Z,3.90
2023-04-22T13:55:32.472Z,3.90
2023-04-22T13:58:01.219Z,3.70
2023-04-22T14:00:29.147Z,3.50
2023-04-22T14:02:57.569Z,3.40
2023-04-22T14:05:26.219Z,4.50
2023-04-22T14:07:54.683Z,3.60
2023-04-22T14:10:23.154Z,3.80
2023-04-22T14:12:51.314Z,3.60
2023-04-22T14:15:19.248Z,3.80
2023-04-22T14:17:49.503Z,4.00
2023-04-22T14:20:17.803Z,3.70
2023-04-22T14:22:46.432Z,3.80
2023-04-22T14:25:14.810Z,4.20
2023-04-22T14:27:43.199Z,3.90
2023-04-22T14:30:12.047Z,3.90
2023-04-22T14:32:40.029Z,4.00
2023-04-22T14:35:08.255Z,3.70
2023-04-22T14:37:36.202Z,4.00
2023-04-22T14:40:04.876Z,3.70
2023-04-22T14:42:33.037Z,4.00
2023-04-22T14:45:01.155Z,4.10
2023-04-22T14:47:30.137Z,4.00
2023-04-22T14:49:58.267Z,3.80
2023-04-22T14:52:26.189Z,4.30
2023-04-22T14:54:54.266Z,4.70
2023-04-22T14:57:22.204Z,4.40
2023-04-22T14:59:50.269Z,4.60
2023-04-22T15:02:18.426Z,4.10
2023-04-22T15:04:46.522Z,4.50
2023-04-22T15:07:14.601Z,4.00
2023-04-22T15:09:43.089Z,4.10
2023-04-22T15:12:11.521Z,4.20
2023-04-22T15:14:39.517Z,4.30
2023-04-22T15:17:07.769Z,4.30
2023-04-22T15:19:36.139Z,4.10
2023-04-22T15:22:04.431Z,4.50
2023-04-22T15:24:32.508Z,4.20
2023-04-22T15:27:01.279Z,4.00
2023-04-22T15:29:29.745Z,4.40
2023-04-22T15:31:57.984Z,4.10
2023-04-22T15:34:26.127Z,4.20
2023-04-22T15:36:54.440Z,4.10
2023-04-22T15:39:23.836Z,4.20
2023-04-22T15:41:51.737Z,4.40
2023-04-22T15:44:19.685Z,4.40
2023-04-22T15:46:47.819Z,4.10
2023-04-22T15:49:16.709Z,4.20
2023-04-22T15:51:44.720Z,4.20
2023-04-22T15:54:12.750Z,3.90
2023-04-22T15:56:40.988Z,3.80
2023-04-22T15:59:09.235Z,3.80
2023-04-22T16:01:39.620Z,3.70
2023-04-22T16:04:08.952Z,4.00
2023-04-22T16:06:38.166Z,3.90
2023-04-22T16:09:06.667Z,4.50
2023-04-22T16:11:34.639Z,4.30
2023-04-22T16:14:02.682Z,4.50
2023-04-22T16:16:31.513Z,4.40
2023-04-22T16:19:00.328Z,4.20
2023-04-22T16:21:30.114Z,4.00
2023-04-22T16:23:58.790Z,4.20
2023-04-22T16:26:27.182Z,4.40
2023-04-22T16:28:55.216Z,3.90
2023-04-22T16:31:23.371Z,4.00
2023-04-22T16:33:52.027Z,4.60
2023-04-22T16:36:20.220Z,4.60
2023-04-22T16:38:48.196Z,4.30
2023-04-22T16:41:16.223Z,4.50
2023-04-22T16:43:44.191Z,4.50
2023-04-22T16:46:12.450Z,4.00
2023-04-22T16:48:40.461Z,4.60
2023-04-22T16:51:08.417Z,4.70
2023-04-22T16:53:36.492Z,4.60
2023-04-22T16:56:04.591Z,5.00
2023-04-22T16:58:32.592Z,4.40
2023-04-22T17:01:00.591Z,4.40
2023-04-22T17:03:28.729Z,4.10
2023-04-22T17:05:56.887Z,4.60
2023-04-22T17:08:25.175Z,4.70
2023-04-22T17:10:53.170Z,5.10
2023-04-22T17:13:21.147Z,5.50
2023-04-22T17:15:49.248Z,5.50
2023-04-22T17:18:17.218Z,5.50
2023-04-22T17:20:45.207Z,5.50
2023-04-22T17:23:13.151Z,5.30
2023-04-22T17:25:41.066Z,5.80
2023-04-22T17:28:11.108Z,6.20
2023-04-22T17:30:39.045Z,5.80
2023-04-22T17:33:07.166Z,6.30
2023-04-22T17:35:35.311Z,16.70
2023-04-22T17:38:03.372Z,11.60
2023-04-22T17:40:31.478Z,10.70
2023-04-22T17:42:59.538Z,8.50
2023-04-22T17:45:27.614Z,7.70
2023-04-22T17:47:55.622Z,7.80
2023-04-22T17:50:23.918Z,7.20
2023-04-22T17:52:51.864Z,10.90
2023-04-22T17:55:19.835Z,10.80
2023-04-22T17:57:47.755Z,9.50
2023-04-22T18:00:17.025Z,12.80
2023-04-22T18:02:45.135Z,14.20
2023-04-22T18:05:13.376Z,13.70
2023-04-22T18:07:41.314Z,22.20
2023-04-22T18:10:10.338Z,21.10
2023-04-22T18:12:39.186Z,24.20
2023-04-22T18:15:07.625Z,26.50
2023-04-22T18:17:35.831Z,21.10
2023-04-22T18:20:16.581Z,18.60
2023-04-22T18:22:48.860Z,24.40
2023-04-22T18:25:16.894Z,31.90
2023-04-22T18:27:44.881Z,25.10
2023-04-22T18:30:13.343Z,19.10
2023-04-22T18:32:41.380Z,22.00
2023-04-22T18:35:09.680Z,19.80
2023-04-22T18:37:37.695Z,22.30
2023-04-22T18:40:07.172Z,17.70
2023-04-22T18:42:35.338Z,20.70
2023-04-22T18:45:05.101Z,22.10
2023-04-22T18:47:33.452Z,21.00
2023-04-22T18:50:01.724Z,14.90
2023-04-22T18:52:29.787Z,12.50
2023-04-22T18:54:57.838Z,11.00
2023-04-22T18:57:26.640Z,11.10
2023-04-22T18:59:55.072Z,10.40
2023-04-22T19:02:23.181Z,10.70
2023-04-22T19:04:54.074Z,10.50
2023-04-22T19:07:22.071Z,11.00
2023-04-22T19:09:50.031Z,10.10
2023-04-22T19:12:19.720Z,11.20
2023-04-22T19:14:50.511Z,11.60
2023-04-22T19:17:18.543Z,11.50
2023-04-22T19:19:46.847Z,12.40
2023-04-22T19:22:16.284Z,11.00
2023-04-22T19:24:44.433Z,10.90
2023-04-22T19:27:12.707Z,10.30
2023-04-22T19:29:42.267Z,11.30
2023-04-22T19:32:11.699Z,11.60
2023-04-22T19:34:39.720Z,11.20
2023-04-22T19:37:08.449Z,10.30
2023-04-22T19:39:36.773Z,10.80
2023-04-22T19:42:05.145Z,11.50
2023-04-22T19:44:33.155Z,11.70
2023-04-22T19:47:01.389Z,11.40
2023-04-22T19:49:31.928Z,10.90
2023-04-22T19:52:02.024Z,10.70
2023-04-22T19:54:30.815Z,11.80
2023-04-22T19:56:59.224Z,11.40
2023-04-22T19:59:31.156Z,11.00
2023-04-22T20:01:59.580Z,11.50
2023-04-22T20:04:28.056Z,11.60
2023-04-22T20:06:57.322Z,11.40
2023-04-22T20:09:27.491Z,12.30
2023-04-22T20:11:55.547Z,11.90
2023-04-22T20:14:25.941Z,12.00
2023-04-22T20:16:54.514Z,13.30
2023-04-22T20:19:22.582Z,15.60
2023-04-22T20:21:51.258Z,42.60
2023-04-22T20:24:20.272Z,39.60
2023-04-22T20:26:49.569Z,33.40
2023-04-22T20:29:17.997Z,24.60
2023-04-22T20:31:46.780Z,21.30
2023-04-22T20:34:14.803Z,18.50
2023-04-22T20:36:43.256Z,16.70
2023-04-22T20:39:14.363Z,17.20
2023-04-22T20:41:42.720Z,17.30
2023-04-22T20:44:10.698Z,16.90
2023-04-22T20:46:38.996Z,16.40
2023-04-22T20:49:07.151Z,16.80
2023-04-22T20:51:36.076Z,16.40
2023-04-22T20:54:06.192Z,17.60
2023-04-22T20:56:38.100Z,16.80
2023-04-22T20:59:06.130Z,16.40
2023-04-22T21:01:34.494Z,17.00
2023-04-22T21:04:03.749Z,16.60
2023-04-22T21:06:34.159Z,17.20
2023-04-22T21:09:03.370Z,15.80
2023-04-22T21:11:31.657Z,16.00
2023-04-22T21:13:59.942Z,16.00
2023-04-22T21:16:31.396Z,17.10
2023-04-22T21:19:01.021Z,24.70
2023-04-22T21:21:34.773Z,20.70
2023-04-22T21:24:07.070Z,20.00
2023-04-22T21:26:37.559Z,17.90
2023-04-22T21:29:06.053Z,17.70
2023-04-22T21:31:34.395Z,16.60
2023-04-22T21:34:04.675Z,15.80
2023-04-22T21:36:32.760Z,14.00
2023-04-22T21:39:02.838Z,14.20
2023-04-22T21:41:31.408Z,14.10
2023-04-22T21:43:59.344Z,14.80
2023-04-22T21:46:27.348Z,16.00
2023-04-22T21:48:56.130Z,17.70
2023-04-22T21:51:24.495Z,16.90
2023-04-22T21:53:52.894Z,23.50
2023-04-22T21:56:20.893Z,29.70
2023-04-22T21:58:48.781Z,36.20
2023-04-22T22:01:16.849Z,38.40
2023-04-22T22:03:46.253Z,39.10
2023-04-22T22:06:14.431Z,32.90
2023-04-22T22:08:42.364Z,28.90
2023-04-22T22:11:17.226Z,22.40
2023-04-22T22:13:52.007Z,22.30
2023-04-22T22:16:20.108Z,25.60
2023-04-22T22:18:50.127Z,34.10
2023-04-22T22:21:18.478Z,38.50
2023-04-22T22:23:46.397Z,40.10
2023-04-22T22:26:14.445Z,41.80
2023-04-22T22:28:42.340Z,41.30
2023-04-22T22:31:10.480Z,46.60
2023-04-22T22:33:38.448Z,50.00
2023-04-22T22:36:06.700Z,50.70
2023-04-22T22:38:34.698Z,38.60
2023-04-22T22:41:02.669Z,30.60
2023-04-22T22:43:30.559Z,27.90
2023-04-22T22:45:58.526Z,29.30
2023-04-22T22:48:26.644Z,25.10
2023-04-22T22:50:54.574Z,21.70
2023-04-22T22:53:22.783Z,21.40
2023-04-22T22:55:50.760Z,22.00
2023-04-22T22:58:18.683Z,33.10
2023-04-22T23:00:46.766Z,28.20
2023-04-22T23:03:15.563Z,27.50
2023-04-22T23:05:45.047Z,24.20
2023-04-22T23:08:13.381Z,26.00
2023-04-22T23:10:41.300Z,20.60
2023-04-22T23:13:09.173Z,22.70
2023-04-22T23:15:37.146Z,22.40
2023-04-22T23:18:06.566Z,20.00
2023-04-22T23:20:36.080Z,19.80
2023-04-22T23:23:04.755Z,18.30
2023-04-22T23:25:32.832Z,23.30
2023-04-22T23:28:01.644Z,23.20
2023-04-22T23:30:29.850Z,20.60
2023-04-22T23:33:02.118Z,20.20
2023-04-22T23:35:30.878Z,17.20
2023-04-22T23:37:59.155Z,17.60
2023-04-22T23:40:27.168Z,15.80
2023-04-22T23:42:55.179Z,15.20
2023-04-22T23:45:23.092Z,14.80
2023-04-22T23:47:50.974Z,12.60
2023-04-22T23:50:19.275Z,11.00
2023-04-22T23:52:47.382Z,11.90
2023-04-22T23:55:16.168Z,10.50
2023-04-22T23:57:44.380Z,10.40
